KCHD/CHD METAR and TAF weather

Enter ICAO airport designator
Station Type Date Time Source
KCHD METAR 2022/11/27 03:47 UTC NOAA

KCHD 270347Z 36004KT 10SM CLR 11/M03 A3001 RMK LAST


Station Type Date Time Source
KCHD Decoded METAR 2022/11/27 03:47 UTC NOAA

Chandler, Chandler Municipal Airport, AZ, United States (KCHD) 33-16-09N 111-48-40W
Nov 26, 2022 - 10:47 PM EST / 2022.11.27 0347 UTC
Wind: from the N (360 degrees) at 5 MPH (4 KT):0
Visibility: 10 mile(s):0
Sky conditions: clear
Temperature: 51 F (11 C)
Dew Point: 26 F (-3 C)
Relative Humidity: 37%
Pressure (altimeter): 30.01 in. Hg (1016 hPa)
ob: KCHD 270347Z 36004KT 10SM CLR 11/M03 A3001 RMK LAST
cycle: 4

Station Type Date Time Source
KCHD TAF UTC NOAA

Error!

Example: see airport list